ANA1723 ROAH-ROMY
Flight info
| Callsign | ANA1723 |
|---|---|
| Flight time | 0h 35m |
| Altitude | 28000 |
| Route | GANJU Y576 YUTAH |
| Aircraft | B738/M-SDE2E3FGHIRWXY/LB1 |
Departure
| Time | 2026-04-24 19:26 |
|---|---|
| Airport | Naha International Airport (ROAH) |
Arrival
| Time | 2026-04-24 20:01 |
|---|---|
| Airport | Miyako Airport (ROMY) |
| Time | Latitude | Longitude | Altitude | Speed | Heading |
|---|---|---|---|---|---|
| 2026-04-24 19:07 | 26.20774 | 127.64835 | 22 ft | 0 kts | 87° |
| 2026-04-24 19:19 | 26.20774 | 127.64836 | 21 ft | 0 kts | 92° |
| 2026-04-24 19:19 | 26.20771 | 127.64839 | 21 ft | 1 kts | 120° |
| 2026-04-24 19:19 | 26.20754 | 127.64842 | 22 ft | 3 kts | 202° |
| 2026-04-24 19:19 | 26.20750 | 127.64808 | 21 ft | 7 kts | 270° |
| 2026-04-24 19:20 | 26.20726 | 127.64754 | 22 ft | 10 kts | 203° |
| 2026-04-24 19:20 | 26.20603 | 127.64755 | 21 ft | 16 kts | 176° |
| 2026-04-24 19:20 | 26.20521 | 127.64759 | 21 ft | 19 kts | 179° |
| 2026-04-24 19:20 | 26.20383 | 127.64764 | 21 ft | 21 kts | 177° |
| 2026-04-24 19:21 | 26.20229 | 127.64772 | 21 ft | 23 kts | 179° |
| 2026-04-24 19:21 | 26.20073 | 127.64779 | 21 ft | 23 kts | 178° |
| 2026-04-24 19:21 | 26.19906 | 127.64786 | 21 ft | 25 kts | 178° |
| 2026-04-24 19:21 | 26.19735 | 127.64794 | 21 ft | 24 kts | 178° |
| 2026-04-24 19:22 | 26.19574 | 127.64803 | 21 ft | 23 kts | 177° |
| 2026-04-24 19:22 | 26.19416 | 127.64810 | 21 ft | 23 kts | 177° |
| 2026-04-24 19:22 | 26.19259 | 127.64817 | 21 ft | 22 kts | 177° |
| 2026-04-24 19:22 | 26.19104 | 127.64824 | 21 ft | 23 kts | 177° |
| 2026-04-24 19:23 | 26.18939 | 127.64833 | 22 ft | 24 kts | 178° |
| 2026-04-24 19:23 | 26.18777 | 127.64840 | 21 ft | 23 kts | 177° |
| 2026-04-24 19:23 | 26.18617 | 127.64847 | 22 ft | 23 kts | 178° |
| 2026-04-24 19:23 | 26.18462 | 127.64855 | 22 ft | 22 kts | 178° |
| 2026-04-24 19:24 | 26.18313 | 127.64861 | 22 ft | 16 kts | 177° |
| 2026-04-24 19:24 | 26.18244 | 127.64778 | 21 ft | 18 kts | 265° |
| 2026-04-24 19:24 | 26.18252 | 127.64663 | 20 ft | 9 kts | 294° |
| 2026-04-24 19:24 | 26.18311 | 127.64653 | 20 ft | 8 kts | 359° |
| 2026-04-24 19:25 | 26.18324 | 127.64652 | 21 ft | 2 kts | 357° |
| 2026-04-24 19:25 | 26.18509 | 127.64644 | 20 ft | 61 kts | 358° |
| 2026-04-24 19:25 | 26.19156 | 127.64614 | 25 ft | 123 kts | 358° |
| 2026-04-24 19:25 | 26.20185 | 127.64572 | 133 ft | 164 kts | 358° |
| 2026-04-24 19:26 | 26.21317 | 127.64511 | 844 ft | 161 kts | 356° |
| 2026-04-24 19:26 | 26.22453 | 127.64445 | 1516 ft | 164 kts | 357° |
| 2026-04-24 19:26 | 26.23615 | 127.64401 | 2023 ft | 181 kts | 358° |
| 2026-04-24 19:26 | 26.24972 | 127.64346 | 2259 ft | 208 kts | 354° |
| 2026-04-24 19:27 | 26.26391 | 127.63804 | 2471 ft | 226 kts | 329° |
| 2026-04-24 19:27 | 26.27819 | 127.62864 | 2701 ft | 250 kts | 329° |
| 2026-04-24 19:27 | 26.29349 | 127.61882 | 3379 ft | 256 kts | 328° |
| 2026-04-24 19:27 | 26.30892 | 127.60900 | 4227 ft | 256 kts | 328° |
| 2026-04-24 19:28 | 26.32450 | 127.59914 | 5003 ft | 258 kts | 327° |
| 2026-04-24 19:28 | 26.34022 | 127.58921 | 5734 ft | 261 kts | 327° |
| 2026-04-24 19:28 | 26.35609 | 127.57920 | 6502 ft | 264 kts | 327° |
| 2026-04-24 19:28 | 26.37220 | 127.56905 | 7179 ft | 267 kts | 327° |
| 2026-04-24 19:29 | 26.40347 | 127.54616 | 8491 ft | 269 kts | 305° |
| 2026-04-24 19:29 | 26.41150 | 127.52799 | 9189 ft | 265 kts | 281° |
| 2026-04-24 19:29 | 26.41195 | 127.50750 | 9906 ft | 266 kts | 259° |
| 2026-04-24 19:30 | 26.40551 | 127.48802 | 10397 ft | 277 kts | 239° |
| 2026-04-24 19:30 | 26.39325 | 127.47033 | 10571 ft | 300 kts | 231° |
| 2026-04-24 19:30 | 26.37882 | 127.45243 | 10720 ft | 320 kts | 230° |
| 2026-04-24 19:30 | 26.36350 | 127.43341 | 10874 ft | 339 kts | 230° |
| 2026-04-24 19:31 | 26.34750 | 127.41322 | 10996 ft | 355 kts | 231° |
| 2026-04-24 19:31 | 26.33046 | 127.39266 | 11305 ft | 365 kts | 227° |
| 2026-04-24 19:31 | 26.31230 | 127.37276 | 11878 ft | 366 kts | 226° |
| 2026-04-24 19:31 | 26.29393 | 127.35312 | 12542 ft | 365 kts | 226° |
| 2026-04-24 19:32 | 26.27561 | 127.33352 | 13148 ft | 365 kts | 226° |
| 2026-04-24 19:32 | 26.25734 | 127.31383 | 13759 ft | 366 kts | 226° |
| 2026-04-24 19:32 | 26.23906 | 127.29399 | 14223 ft | 369 kts | 226° |
| 2026-04-24 19:32 | 26.22065 | 127.27387 | 14638 ft | 372 kts | 226° |
| 2026-04-24 19:33 | 26.20235 | 127.25390 | 15152 ft | 374 kts | 226° |
| 2026-04-24 19:33 | 26.18374 | 127.23361 | 15687 ft | 375 kts | 226° |
| 2026-04-24 19:33 | 26.16508 | 127.21325 | 16216 ft | 376 kts | 226° |
| 2026-04-24 19:33 | 26.14633 | 127.19280 | 16686 ft | 378 kts | 226° |
| 2026-04-24 19:34 | 26.12764 | 127.17217 | 17133 ft | 380 kts | 229° |
| 2026-04-24 19:34 | 26.11181 | 127.14869 | 17577 ft | 380 kts | 238° |
| 2026-04-24 19:34 | 26.09790 | 127.12363 | 18030 ft | 382 kts | 239° |
| 2026-04-24 19:34 | 26.08407 | 127.09831 | 18428 ft | 384 kts | 239° |
| 2026-04-24 19:35 | 26.07012 | 127.07290 | 18767 ft | 386 kts | 239° |
| 2026-04-24 19:35 | 26.05593 | 127.04733 | 19082 ft | 390 kts | 239° |
| 2026-04-24 19:35 | 26.04159 | 127.02172 | 19428 ft | 391 kts | 239° |
| 2026-04-24 19:35 | 26.02710 | 126.99602 | 19795 ft | 393 kts | 239° |
| 2026-04-24 19:36 | 26.01250 | 126.97021 | 20018 ft | 396 kts | 239° |
| 2026-04-24 19:36 | 25.99782 | 126.94431 | 20017 ft | 395 kts | 239° |
| 2026-04-24 19:36 | 25.98315 | 126.91847 | 20026 ft | 395 kts | 239° |
| 2026-04-24 19:36 | 25.96850 | 126.89267 | 20037 ft | 395 kts | 239° |
| 2026-04-24 19:37 | 25.95382 | 126.86682 | 20032 ft | 396 kts | 238° |
| 2026-04-24 19:37 | 25.93912 | 126.84096 | 20029 ft | 396 kts | 238° |
| 2026-04-24 19:37 | 25.92441 | 126.81509 | 20032 ft | 396 kts | 238° |
| 2026-04-24 19:37 | 25.90968 | 126.78919 | 20032 ft | 396 kts | 238° |
| 2026-04-24 19:38 | 25.89498 | 126.76337 | 20026 ft | 396 kts | 238° |
| 2026-04-24 19:38 | 25.88027 | 126.73754 | 20032 ft | 396 kts | 239° |
| 2026-04-24 19:38 | 25.86563 | 126.71163 | 20029 ft | 395 kts | 239° |
| 2026-04-24 19:38 | 25.85175 | 126.68534 | 20026 ft | 395 kts | 241° |
| 2026-04-24 19:39 | 25.83826 | 126.65882 | 20030 ft | 394 kts | 241° |
| 2026-04-24 19:39 | 25.82488 | 126.63223 | 20026 ft | 394 kts | 241° |
| 2026-04-24 19:39 | 25.81163 | 126.60596 | 20033 ft | 396 kts | 241° |
| 2026-04-24 19:39 | 25.79802 | 126.57912 | 20034 ft | 402 kts | 241° |
| 2026-04-24 19:40 | 25.78419 | 126.55199 | 20030 ft | 404 kts | 241° |
| 2026-04-24 19:40 | 25.77035 | 126.52495 | 20020 ft | 402 kts | 241° |
| 2026-04-24 19:40 | 25.75652 | 126.49802 | 20030 ft | 401 kts | 241° |
| 2026-04-24 19:40 | 25.74272 | 126.47119 | 20019 ft | 401 kts | 241° |
| 2026-04-24 19:41 | 25.72891 | 126.44435 | 20022 ft | 401 kts | 241° |
| 2026-04-24 19:41 | 25.71507 | 126.41748 | 20030 ft | 401 kts | 241° |
| 2026-04-24 19:41 | 25.70123 | 126.39062 | 20028 ft | 401 kts | 241° |
| 2026-04-24 19:41 | 25.68736 | 126.36373 | 20021 ft | 402 kts | 241° |
| 2026-04-24 19:42 | 25.67347 | 126.33681 | 20028 ft | 402 kts | 241° |
| 2026-04-24 19:42 | 25.65954 | 126.30983 | 20023 ft | 403 kts | 241° |
| 2026-04-24 19:42 | 25.64561 | 126.28287 | 20024 ft | 403 kts | 240° |
| 2026-04-24 19:42 | 25.63168 | 126.25592 | 20027 ft | 403 kts | 240° |
| 2026-04-24 19:43 | 25.61773 | 126.22896 | 20031 ft | 403 kts | 241° |
| 2026-04-24 19:43 | 25.60380 | 126.20203 | 20020 ft | 403 kts | 241° |
| 2026-04-24 19:43 | 25.58987 | 126.17512 | 20000 ft | 402 kts | 240° |
| 2026-04-24 19:43 | 25.57596 | 126.14828 | 20013 ft | 402 kts | 240° |
| 2026-04-24 19:44 | 25.56203 | 126.12141 | 20017 ft | 402 kts | 240° |
| 2026-04-24 19:44 | 25.54810 | 126.09454 | 20033 ft | 402 kts | 240° |
| 2026-04-24 19:44 | 25.53431 | 126.06797 | 20018 ft | 403 kts | 240° |
| 2026-04-24 19:44 | 25.52015 | 126.04070 | 20032 ft | 403 kts | 240° |
| 2026-04-24 19:45 | 25.50614 | 126.01374 | 20028 ft | 404 kts | 240° |
| 2026-04-24 19:45 | 25.49216 | 125.98684 | 20019 ft | 404 kts | 240° |
| 2026-04-24 19:45 | 25.47832 | 125.96023 | 20020 ft | 404 kts | 240° |
| 2026-04-24 19:45 | 25.46441 | 125.93348 | 20011 ft | 398 kts | 240° |
| 2026-04-24 19:46 | 25.45066 | 125.90708 | 20009 ft | 395 kts | 240° |
| 2026-04-24 19:46 | 25.43693 | 125.88074 | 20007 ft | 392 kts | 240° |
| 2026-04-24 19:46 | 25.42356 | 125.85509 | 19825 ft | 378 kts | 240° |
| 2026-04-24 19:46 | 25.41057 | 125.83020 | 19460 ft | 370 kts | 240° |
| 2026-04-24 19:47 | 25.39762 | 125.80538 | 18923 ft | 374 kts | 240° |
| 2026-04-24 19:47 | 25.38459 | 125.78040 | 18203 ft | 376 kts | 240° |
| 2026-04-24 19:47 | 25.37161 | 125.75557 | 18300 ft | 376 kts | 239° |
| 2026-04-24 19:47 | 25.35642 | 125.73159 | 18306 ft | 385 kts | 231° |
| 2026-04-24 19:48 | 25.33783 | 125.70989 | 18306 ft | 392 kts | 225° |
| 2026-04-24 19:48 | 25.31645 | 125.69111 | 18292 ft | 392 kts | 217° |
| 2026-04-24 19:48 | 25.27030 | 125.65993 | 17421 ft | 384 kts | 212° |
| 2026-04-24 19:49 | 25.22400 | 125.63097 | 15846 ft | 382 kts | 217° |
| 2026-04-24 19:49 | 25.18123 | 125.59712 | 14473 ft | 378 kts | 219° |
| 2026-04-24 19:50 | 25.11803 | 125.54664 | 12450 ft | 371 kts | 218° |
| 2026-04-24 19:50 | 25.09700 | 125.53001 | 11891 ft | 367 kts | 218° |
| 2026-04-24 19:51 | 25.05789 | 125.49632 | 11289 ft | 343 kts | 228° |
| 2026-04-24 19:51 | 25.04186 | 125.47758 | 11194 ft | 328 kts | 229° |
| 2026-04-24 19:52 | 25.01185 | 125.44231 | 11011 ft | 303 kts | 228° |
| 2026-04-24 19:52 | 24.99763 | 125.42572 | 10929 ft | 291 kts | 228° |
| 2026-04-24 19:52 | 24.98393 | 125.40982 | 10862 ft | 280 kts | 228° |
| 2026-04-24 19:52 | 24.97092 | 125.39475 | 10776 ft | 268 kts | 228° |
| 2026-04-24 19:53 | 24.95825 | 125.38013 | 10634 ft | 260 kts | 228° |
| 2026-04-24 19:53 | 24.94578 | 125.36574 | 10349 ft | 260 kts | 228° |
| 2026-04-24 19:53 | 24.92074 | 125.33686 | 9724 ft | 261 kts | 228° |
| 2026-04-24 19:54 | 24.90818 | 125.32241 | 9403 ft | 260 kts | 228° |
| 2026-04-24 19:54 | 24.89565 | 125.30800 | 9087 ft | 260 kts | 228° |
| 2026-04-24 19:54 | 24.88314 | 125.29362 | 8782 ft | 260 kts | 228° |
| 2026-04-24 19:54 | 24.87065 | 125.27926 | 8477 ft | 260 kts | 228° |
| 2026-04-24 19:55 | 24.86234 | 125.26971 | 8269 ft | 259 kts | 228° |
| 2026-04-24 19:55 | 24.84565 | 125.25055 | 7885 ft | 259 kts | 228° |
| 2026-04-24 19:55 | 24.83319 | 125.23625 | 7598 ft | 258 kts | 228° |
| 2026-04-24 19:55 | 24.82069 | 125.22189 | 7236 ft | 261 kts | 229° |
| 2026-04-24 19:56 | 24.80811 | 125.20746 | 6950 ft | 261 kts | 229° |
| 2026-04-24 19:56 | 24.79575 | 125.19329 | 6696 ft | 259 kts | 229° |
| 2026-04-24 19:56 | 24.78324 | 125.17894 | 6422 ft | 259 kts | 229° |
| 2026-04-24 19:56 | 24.77074 | 125.16462 | 6133 ft | 259 kts | 228° |
| 2026-04-24 19:57 | 24.75831 | 125.15038 | 5871 ft | 257 kts | 228° |
| 2026-04-24 19:57 | 24.74598 | 125.13627 | 5599 ft | 256 kts | 228° |
| 2026-04-24 19:57 | 24.73268 | 125.12316 | 5294 ft | 259 kts | 211° |
| 2026-04-24 19:57 | 24.71534 | 125.11800 | 5020 ft | 263 kts | 181° |
| 2026-04-24 19:58 | 24.69771 | 125.12282 | 4835 ft | 263 kts | 153° |
| 2026-04-24 19:58 | 24.68386 | 125.13549 | 4753 ft | 257 kts | 131° |
| 2026-04-24 19:58 | 24.67287 | 125.15060 | 4645 ft | 250 kts | 128° |
| 2026-04-24 19:58 | 24.66461 | 125.16771 | 3970 ft | 267 kts | 100° |
| 2026-04-24 19:59 | 24.66637 | 125.18811 | 3313 ft | 276 kts | 66° |
| 2026-04-24 19:59 | 24.67806 | 125.20471 | 2625 ft | 278 kts | 39° |
| 2026-04-24 19:59 | 24.69324 | 125.21749 | 2212 ft | 270 kts | 38° |
| 2026-04-24 19:59 | 24.70770 | 125.23004 | 1853 ft | 260 kts | 38° |
| 2026-04-24 20:00 | 24.72162 | 125.24214 | 1496 ft | 248 kts | 38° |
| 2026-04-24 20:00 | 24.73441 | 125.25321 | 1195 ft | 225 kts | 38° |
| 2026-04-24 20:00 | 24.74615 | 125.26338 | 913 ft | 206 kts | 38° |
| 2026-04-24 20:00 | 24.75689 | 125.27267 | 677 ft | 184 kts | 37° |
| 2026-04-24 20:01 | 24.76642 | 125.28087 | 401 ft | 164 kts | 37° |
| 2026-04-24 20:01 | 24.77486 | 125.28824 | 203 ft | 145 kts | 38° |
| 2026-04-24 20:01 | 24.78208 | 125.29448 | 146 ft | 112 kts | 39° |
| 2026-04-24 20:01 | 24.78646 | 125.29827 | 151 ft | 48 kts | 38° |
| 2026-04-24 20:02 | 24.78763 | 125.29927 | 154 ft | 21 kts | 37° |
| 2026-04-24 20:02 | 24.78874 | 125.30010 | 156 ft | 5 kts | 53° |
| 2026-04-24 20:02 | 24.78858 | 125.30037 | 155 ft | 5 kts | 182° |
| 2026-04-24 20:02 | 24.78832 | 125.29999 | 155 ft | 7 kts | 238° |
| 2026-04-24 20:03 | 24.78793 | 125.29955 | 154 ft | 10 kts | 217° |
| 2026-04-24 20:03 | 24.78716 | 125.29890 | 152 ft | 18 kts | 218° |
| 2026-04-24 20:03 | 24.78598 | 125.29786 | 151 ft | 21 kts | 218° |
| 2026-04-24 20:03 | 24.78471 | 125.29680 | 150 ft | 26 kts | 218° |
| 2026-04-24 20:04 | 24.78328 | 125.29553 | 148 ft | 21 kts | 216° |
| 2026-04-24 20:04 | 24.78260 | 125.29546 | 148 ft | 12 kts | 147° |
| 2026-04-24 20:04 | 24.78191 | 125.29633 | 147 ft | 18 kts | 127° |
| 2026-04-24 20:04 | 24.78141 | 125.29693 | 147 ft | 3 kts | 145° |
| 2026-04-24 20:05 | 24.78096 | 125.29714 | 146 ft | 11 kts | 154° |
| 2026-04-24 20:05 | 24.78062 | 125.29748 | 146 ft | 1 kts | 128° |
| 2026-04-24 20:05 | 24.78061 | 125.29750 | 146 ft | 0 kts | 127° |